Terminal Aerodrome Forecast
Issued by NWS Cleveland, OH

Home | Current Version | Previous Version | Graphics & Text | Print | Product List | Glossary On
Versions: 1 2 3 4 5 6 7 8 9 10 11 12 13 14 15 16 17 18 19 20 21 22 23 24 25 26 27
000
FTUS41 KCLE 201500 AAB
TAFCAK
TAF AMD
KCAK 201525Z 2015/2112 22011KT P6SM BKN045
     FM201700 24011KT P6SM BKN045
     FM202300 24005KT P6SM VCSH BKN040 BKN150
     FM211100 VRB03KT 3SM BR FEW014 SCT100=

USA.gov is the U.S. government's official web portal to all federal, state and local government web resources and services.